createdAt,value
2023-03-22T00:00:02.095Z,1
2023-03-22T00:05:01.482Z,2
2023-03-22T00:10:02.301Z,2
2023-03-22T00:15:02.117Z,1
2023-03-22T00:20:01.744Z,1
2023-03-22T00:25:02.110Z,2
2023-03-22T00:30:01.491Z,1
2023-03-22T00:35:01.875Z,2
2023-03-22T00:40:02.303Z,1
2023-03-22T00:45:01.680Z,1
2023-03-22T00:50:02.023Z,2
2023-03-22T00:55:01.405Z,3
2023-03-22T01:00:01.957Z,3
2023-03-22T01:05:01.344Z,3
2023-03-22T01:10:01.804Z,3
2023-03-22T01:15:02.159Z,3
2023-03-22T01:20:02.030Z,2
2023-03-22T01:25:01.536Z,2
2023-03-22T01:30:01.918Z,2
2023-03-22T01:35:02.287Z,3
2023-03-22T01:40:01.807Z,2
2023-03-22T01:45:02.209Z,1
2023-03-22T01:50:01.596Z,2
2023-03-22T01:55:01.979Z,2
2023-03-22T02:00:01.777Z,2
2023-03-22T02:05:02.559Z,3
2023-03-22T02:10:02.105Z,2
2023-03-22T02:15:01.458Z,3
2023-03-22T02:20:01.886Z,2
2023-03-22T02:25:02.234Z,2
2023-03-22T02:30:01.614Z,2
2023-03-22T02:35:01.995Z,1
2023-03-22T02:40:01.401Z,4
2023-03-22T02:45:01.792Z,3
2023-03-22T02:50:02.274Z,2
2023-03-22T02:55:01.785Z,2
2023-03-22T03:00:02.209Z,4
2023-03-22T03:05:01.607Z,2
2023-03-22T03:10:02.018Z,3
2023-03-22T03:15:01.387Z,2
2023-03-22T03:20:01.989Z,4
2023-03-22T03:25:01.348Z,2
2023-03-22T03:30:01.732Z,3
2023-03-22T03:35:02.117Z,3
2023-03-22T03:40:01.576Z,3
2023-03-22T03:45:02.415Z,4
2023-03-22T03:50:01.903Z,3
2023-03-22T03:55:02.295Z,3
2023-03-22T04:00:01.694Z,3
2023-03-22T04:05:02.187Z,4
2023-03-22T04:10:01.620Z,3
2023-03-22T04:15:02.008Z,2
2023-03-22T04:20:01.442Z,3
2023-03-22T04:25:01.806Z,2
2023-03-22T04:30:02.172Z,4
2023-03-22T04:35:01.974Z,3
2023-03-22T04:40:01.408Z,3
2023-03-22T04:45:02.251Z,4
2023-03-22T04:50:01.612Z,4
2023-03-22T04:55:02.203Z,4
2023-03-22T05:00:01.666Z,3
2023-03-22T05:05:02.060Z,4
2023-03-22T05:10:01.572Z,4
2023-03-22T05:15:02.129Z,3
2023-03-22T05:20:02.008Z,3
2023-03-22T05:25:01.394Z,3
2023-03-22T05:30:01.471Z,4
2023-03-22T05:35:01.961Z,3
2023-03-22T05:40:01.357Z,7
2023-03-22T05:45:01.820Z,3
2023-03-22T05:50:02.191Z,3
2023-03-22T05:55:01.694Z,2
2023-03-22T06:00:02.099Z,2
2023-03-22T06:05:01.466Z,2
2023-03-22T06:10:01.900Z,1
2023-03-22T06:15:02.285Z,3
2023-03-22T06:20:01.712Z,4
2023-03-22T06:25:02.554Z,6
2023-03-22T06:30:01.982Z,2
2023-03-22T06:35:01.812Z,2
2023-03-22T06:40:02.357Z,4
2023-03-22T06:45:01.743Z,3
2023-03-22T06:50:02.236Z,2
2023-03-22T06:55:01.596Z,3
2023-03-22T07:00:02.437Z,2
2023-03-22T07:05:02.236Z,3
2023-03-22T07:10:02.079Z,2
2023-03-22T07:15:01.467Z,3
2023-03-22T07:20:01.900Z,2
2023-03-22T07:25:02.416Z,2
2023-03-22T07:30:01.926Z,3
2023-03-22T07:35:02.320Z,2
2023-03-22T07:40:02.165Z,2
2023-03-22T07:45:01.715Z,4
2023-03-22T07:50:02.090Z,2
2023-03-22T07:55:01.458Z,4
2023-03-22T08:00:01.997Z,2
2023-03-22T08:05:01.803Z,2
2023-03-22T08:10:02.625Z,2
2023-03-22T08:15:01.987Z,2
2023-03-22T08:20:01.449Z,2
2023-03-22T08:25:01.867Z,2
2023-03-22T08:30:02.398Z,1
2023-03-22T08:35:02.215Z,1
2023-03-22T08:40:02.135Z,1
2023-03-22T08:45:01.717Z,3
2023-03-22T08:50:02.089Z,1
2023-03-22T08:55:01.530Z,1
2023-03-22T09:00:02.342Z,1
2023-03-22T09:05:01.849Z,1
2023-03-22T09:10:02.700Z,1
2023-03-22T09:15:02.100Z,1
2023-03-22T09:20:12.163Z,2
2023-03-22T09:25:01.533Z,1
2023-03-22T09:30:02.066Z,2
2023-03-22T09:35:01.452Z,2
2023-03-22T09:40:01.885Z,2
2023-03-22T09:45:02.697Z,2
2023-03-22T09:50:02.063Z,2
2023-03-22T09:55:01.475Z,3
2023-03-22T10:00:02.037Z,3
2023-03-22T10:05:01.824Z,1
2023-03-22T10:10:02.225Z,3
2023-03-22T10:15:02.035Z,2
2023-03-22T10:20:01.508Z,2
2023-03-22T10:25:02.064Z,1
2023-03-22T10:30:01.886Z,3
2023-03-22T10:35:02.398Z,4
2023-03-22T10:40:01.820Z,1
2023-03-22T10:45:02.242Z,2
2023-03-22T10:50:01.630Z,2
2023-03-22T10:55:04.506Z,2
2023-03-22T11:00:02.101Z,2
2023-03-22T11:05:01.624Z,3
2023-03-22T11:10:02.020Z,3
2023-03-22T11:15:01.569Z,2
2023-03-22T11:20:01.507Z,1
2023-03-22T11:25:01.919Z,2
2023-03-22T11:30:02.732Z,2
2023-03-22T11:35:02.257Z,3
2023-03-22T11:40:02.173Z,2
2023-03-22T11:45:01.999Z,3
2023-03-22T11:50:01.526Z,2
2023-03-22T11:55:01.921Z,3
2023-03-22T12:00:02.482Z,3
2023-03-22T12:05:01.964Z,2
2023-03-22T12:10:01.465Z,1
2023-03-22T12:15:01.833Z,2
2023-03-22T12:20:02.292Z,2
2023-03-22T12:25:02.107Z,2
2023-03-22T12:30:01.503Z,2
2023-03-22T12:35:17.236Z,1
2023-03-22T12:40:02.435Z,2
2023-03-22T12:45:05.600Z,2
2023-03-22T12:50:02.709Z,1
2023-03-22T12:55:02.223Z,1
2023-03-22T13:00:02.025Z,2
2023-03-22T13:05:01.441Z,2
2023-03-22T13:10:02.016Z,2
2023-03-22T13:15:01.465Z,2
2023-03-22T13:20:02.340Z,1
2023-03-22T13:25:01.742Z,2
2023-03-22T13:30:02.121Z,2
2023-03-22T13:35:01.502Z,2
2023-03-22T13:40:02.167Z,1
2023-03-22T13:45:01.888Z,3
2023-03-22T13:50:02.287Z,1
2023-03-22T13:55:01.772Z,1
2023-03-22T14:00:11.243Z,2
2023-03-22T14:05:01.809Z,3
2023-03-22T14:10:02.333Z,2
2023-03-22T14:15:02.138Z,3
2023-03-22T14:20:01.710Z,2
2023-03-22T14:55:02.596Z,3
2023-03-22T15:00:02.412Z,3
2023-03-22T15:10:01.275Z,2
2023-03-22T15:15:02.070Z,3
2023-03-22T15:20:01.611Z,3
2023-03-22T15:25:02.388Z,3
2023-03-22T15:30:01.875Z,3
2023-03-22T15:35:02.364Z,4
2023-03-22T15:40:01.752Z,3
2023-03-22T15:45:02.326Z,6
2023-03-22T15:50:02.149Z,4
2023-03-22T15:55:01.523Z,7
2023-03-22T16:00:02.090Z,6
2023-03-22T16:05:01.661Z,4
2023-03-22T16:10:02.193Z,6
2023-03-22T16:15:01.667Z,8
2023-03-22T16:20:02.566Z,7
2023-03-22T16:25:01.950Z,6
2023-03-22T16:30:01.356Z,7
2023-03-22T16:35:02.145Z,6
2023-03-22T16:40:01.650Z,6
2023-03-22T16:45:02.156Z,4
2023-03-22T16:50:01.664Z,9
2023-03-22T16:55:02.196Z,8
2023-03-22T17:00:01.684Z,7
2023-03-22T17:05:02.278Z,7
2023-03-22T17:10:01.764Z,8
2023-03-22T17:15:02.556Z,8
2023-03-22T17:20:01.988Z,8
2023-03-22T17:25:01.366Z,7
2023-03-22T17:30:01.843Z,8
2023-03-22T17:35:02.223Z,7
2023-03-22T17:40:28.399Z,7
2023-03-22T17:45:02.263Z,8
2023-03-22T17:50:01.741Z,9
2023-03-22T18:00:02.260Z,8
2023-03-22T18:05:01.742Z,8
2023-03-22T18:10:02.144Z,9
2023-03-22T18:15:01.591Z,9
2023-03-22T18:20:14.783Z,11
2023-03-22T18:25:01.356Z,8
2023-03-22T18:30:01.768Z,10
2023-03-22T18:35:02.291Z,13
2023-03-22T18:40:32.512Z,9
2023-03-22T18:45:01.818Z,12
2023-03-22T18:50:02.345Z,9
2023-03-22T18:55:21.472Z,10
2023-03-22T19:00:02.046Z,10
2023-03-22T19:05:01.414Z,9
2023-03-22T19:10:02.009Z,9
2023-03-22T19:15:28.092Z,12
2023-03-22T19:20:02.127Z,15
2023-03-22T19:25:01.550Z,17
2023-03-22T19:30:02.442Z,19
2023-03-22T19:35:02.243Z,13
2023-03-22T19:45:02.452Z,13
2023-03-22T19:50:01.913Z,10
2023-03-22T19:55:02.264Z,10
2023-03-22T20:05:11.290Z,10
2023-03-22T20:10:01.347Z,8
2023-03-22T20:15:01.754Z,9
2023-03-22T20:20:02.635Z,11
2023-03-22T20:25:02.228Z,10
2023-03-22T20:30:01.718Z,10
2023-03-22T20:35:02.186Z,8
2023-03-22T20:40:01.986Z,12
2023-03-22T20:45:01.500Z,8
2023-03-22T20:50:02.262Z,10
2023-03-22T20:55:02.019Z,8
2023-03-22T21:00:01.823Z,8
2023-03-22T21:05:02.650Z,8
2023-03-22T21:10:02.159Z,9
2023-03-22T21:15:01.619Z,8
2023-03-22T21:20:02.059Z,9
2023-03-22T21:25:01.434Z,9
2023-03-22T21:30:01.923Z,5
2023-03-22T21:35:02.276Z,8
2023-03-22T21:40:01.852Z,5
2023-03-22T21:45:02.280Z,5
2023-03-22T21:50:01.841Z,7
2023-03-22T21:55:02.621Z,5
2023-03-22T22:00:02.415Z,7
2023-03-22T22:05:01.752Z,7
2023-03-22T22:10:02.265Z,5
2023-03-22T22:15:01.812Z,7
2023-03-22T22:20:01.682Z,5
2023-03-22T22:25:02.269Z,6
2023-03-22T22:30:01.902Z,6
2023-03-22T22:35:02.709Z,7
2023-03-22T22:40:02.263Z,7
2023-03-22T22:45:02.057Z,7
2023-03-22T22:50:01.407Z,5
2023-03-22T22:55:01.819Z,5
2023-03-22T23:00:02.440Z,4
2023-03-22T23:05:01.816Z,5
2023-03-22T23:10:02.615Z,5
2023-03-22T23:15:02.004Z,5
2023-03-22T23:20:03.041Z,7
2023-03-22T23:25:01.820Z,4
2023-03-22T23:30:02.632Z,7
2023-03-22T23:35:02.081Z,3
2023-03-22T23:40:01.452Z,5
2023-03-22T23:45:02.414Z,6
2023-03-22T23:50:01.880Z,4
2023-03-22T23:55:02.645Z,6
